Time;durP1;ratioP1;P1;durP2;ratioP2;P2;SDS_P1;SDS_P2;PMS_P1;PMS_P2;Temp;Humidity;BMP_temperature;BMP_pressure;BME280_temperature;BME280_humidity;BME280_pressure;Samples;Min_cycle;Max_cycle;Signal;HPM_P1;HPM_P2
2022/10/22 00:01:09;;;;;;;;;4.33;2.67;;;;;16.59;73.39;100320.34;5010673;28;47025;-56
2022/10/22 00:03:34;;;;;;;;;2.33;2.00;;;;;16.58;73.82;100329.38;5019295;28;45469;-58
2022/10/22 00:05:59;;;;;;;;;5.00;4.00;;;;;16.58;73.18;100334.75;5018138;28;45621;-59
2022/10/22 00:08:25;;;;;;;;;5.00;3.00;;;;;16.58;73.20;100336.56;5017526;28;45388;-59
2022/10/22 00:10:51;;;;;;;;;3.00;2.00;;;;;16.53;73.09;100336.94;5016034;28;45501;-58
2022/10/22 00:13:17;;;;;;;;;3.67;2.00;;;;;16.57;72.98;100337.56;5018085;28;45342;-57
2022/10/22 00:15:43;;;;;;;;;4.33;2.67;;;;;16.56;73.06;100350.13;5018317;28;45327;-59
2022/10/22 00:18:08;;;;;;;;;2.00;2.00;;;;;16.55;73.16;100351.13;5000105;28;45544;-59
2022/10/22 00:20:34;;;;;;;;;4.00;3.00;;;;;16.55;73.36;100361.00;5001451;28;45864;-59
2022/10/22 00:22:59;;;;;;;;;4.33;1.67;;;;;16.50;73.27;100358.69;5017851;28;45806;-57
2022/10/22 00:25:25;;;;;;;;;1.33;1.33;;;;;16.52;73.60;100372.81;5018512;28;45702;-58
2022/10/22 00:27:50;;;;;;;;;2.00;2.00;;;;;16.50;73.55;100374.78;5017525;28;45447;-58
2022/10/22 00:30:15;;;;;;;;;2.00;1.33;;;;;16.50;73.70;100381.00;5017023;28;45813;-59
2022/10/22 00:32:43;;;;;;;;;3.00;1.33;;;;;16.46;73.53;100384.94;5028506;28;45421;-58
2022/10/22 00:35:08;;;;;;;;;1.33;1.33;;;;;16.44;73.43;100384.22;5000038;28;45461;-59
2022/10/22 00:37:34;;;;;;;;;2.00;2.00;;;;;16.43;73.30;100371.78;4997798;28;45367;-58
2022/10/22 00:39:59;;;;;;;;;4.33;2.00;;;;;16.46;73.71;100384.09;5028817;28;46923;-57
2022/10/22 00:42:26;;;;;;;;;2.00;2.00;;;;;16.46;73.47;100379.56;5031326;28;45649;-59
2022/10/22 00:45:04;;;;;;;;;2.00;2.00;;;;;16.47;73.62;100383.97;5016759;28;45299;-57
2022/10/22 00:47:41;;;;;;;;;2.00;2.00;;;;;16.48;73.55;100382.97;5017588;28;45300;-59
2022/10/22 00:50:11;;;;;;;;;4.00;4.00;;;;;16.48;73.48;100380.28;5015504;28;47680;-58
2022/10/22 00:52:37;;;;;;;;;2.00;2.00;;;;;16.47;73.52;100392.00;5017947;28;45518;-58
2022/10/22 00:55:04;;;;;;;;;6.67;3.67;;;;;16.47;73.40;100380.44;5017492;28;45355;-59
2022/10/22 00:57:30;;;;;;;;;4.67;2.00;;;;;16.48;73.30;100388.34;5016448;28;45347;-57
2022/10/22 00:59:56;;;;;;;;;3.00;3.00;;;;;16.51;73.36;100398.81;5015001;28;46134;-60
2022/10/22 01:02:22;;;;;;;;;1.67;1.67;;;;;16.50;73.29;100391.75;5017292;28;46115;-57
2022/10/22 01:04:47;;;;;;;;;1.00;1.00;;;;;16.46;73.23;100395.69;5017444;28;45752;-57
2022/10/22 01:07:19;;;;;;;;;2.33;2.33;;;;;16.46;73.32;100398.38;5015443;28;45566;-58
2022/10/22 01:09:55;;;;;;;;;1.33;1.33;;;;;16.46;73.10;100402.88;5014900;28;46330;-57
2022/10/22 01:12:49;;;;;;;;;2.33;2.33;;;;;16.43;73.39;100412.03;5016349;28;45339;-59
2022/10/22 01:15:57;;;;;;;;;3.00;1.00;;;;;16.41;73.36;100414.00;5017421;28;45414;-59
2022/10/22 01:18:35;;;;;;;;;1.00;1.00;;;;;16.35;73.18;100417.19;5006980;28;45858;-58
2022/10/22 01:21:38;;;;;;;;;1.00;1.00;;;;;16.41;73.15;100423.91;5015164;28;45987;-58
2022/10/22 01:24:14;;;;;;;;;1.67;1.00;;;;;16.38;72.51;100438.41;5014271;28;45366;-58
2022/10/22 01:27:03;;;;;;;;;2.00;1.00;;;;;16.39;72.86;100440.09;4997691;28;45600;-58
2022/10/22 01:29:41;;;;;;;;;1.33;0.00;;;;;16.40;72.56;100441.81;4997168;28;45379;-58
2022/10/22 01:32:13;;;;;;;;;3.67;1.00;;;;;16.42;72.24;100442.56;5023885;28;46456;-57
2022/10/22 01:34:42;;;;;;;;;4.00;1.00;;;;;16.44;72.33;100440.59;5016900;28;45272;-58
2022/10/22 01:37:11;;;;;;;;;1.33;1.33;;;;;16.45;72.00;100436.94;5016759;28;45867;-57
2022/10/22 01:39:39;;;;;;;;;1.00;1.00;;;;;16.47;71.98;100445.69;5015570;28;45439;-57
2022/10/22 01:42:04;;;;;;;;;1.00;1.00;;;;;16.49;72.18;100449.09;5008699;28;45400;-59
2022/10/22 01:44:33;;;;;;;;;1.33;1.00;;;;;16.53;71.51;100449.69;5027174;28;45316;-60
2022/10/22 01:47:36;;;;;;;;;1.00;1.00;;;;;16.53;71.76;100447.84;5015411;28;45726;-59
2022/10/22 01:50:10;;;;;;;;;1.67;0.00;;;;;16.55;71.70;100452.28;5031221;28;45462;-60
2022/10/22 01:53:10;;;;;;;;;3.00;1.00;;;;;16.56;71.44;100443.25;5016498;28;46554;-59
2022/10/22 01:56:00;;;;;;;;;1.00;1.00;;;;;16.56;71.46;100448.59;5012612;28;45521;-58
2022/10/22 01:59:06;;;;;;;;;0.00;0.00;;;;;16.56;71.53;100449.47;5012218;28;45190;-59
2022/10/22 02:01:48;;;;;;;;;3.00;1.00;;;;;16.57;71.64;100445.78;5009111;28;45355;-59
2022/10/22 02:04:35;;;;;;;;;0.33;0.00;;;;;16.57;71.71;100450.31;5016289;28;46686;-59
2022/10/22 02:07:05;;;;;;;;;0.67;0.67;;;;;16.62;71.64;100450.78;5016159;28;45406;-59
2022/10/22 02:09:31;;;;;;;;;1.00;1.00;;;;;16.43;71.22;100419.25;5016259;28;46051;-57
2022/10/22 02:12:00;;;;;;;;;1.33;1.00;;;;;16.65;71.24;100456.72;5013887;28;45516;-58
2022/10/22 02:14:30;;;;;;;;;2.00;1.00;;;;;16.66;71.37;100444.16;5016116;28;45273;-61
2022/10/22 02:16:57;;;;;;;;;2.00;1.00;;;;;16.69;71.29;100441.28;4999691;28;45424;-58
2022/10/22 02:19:43;;;;;;;;;2.00;1.67;;;;;16.66;71.34;100436.09;5015982;28;45469;-59
2022/10/22 02:22:09;;;;;;;;;1.67;1.67;;;;;16.77;70.77;100460.25;5015660;28;45557;-58
2022/10/22 02:24:35;;;;;;;;;2.00;1.00;;;;;16.72;71.08;100457.13;5016167;28;45380;-59
2022/10/22 02:27:15;;;;;;;;;3.00;1.67;;;;;16.77;70.87;100463.78;5016053;28;45332;-58
2022/10/22 02:30:09;;;;;;;;;0.67;0.67;;;;;16.75;70.80;100459.53;5015935;28;45254;-58
2022/10/22 02:32:47;;;;;;;;;1.00;1.00;;;;;16.78;70.88;100461.97;5023786;28;45744;-57
2022/10/22 02:35:16;;;;;;;;;0.67;0.67;;;;;16.81;71.10;100464.41;4996587;28;46180;-57
2022/10/22 02:37:43;;;;;;;;;2.00;0.67;;;;;16.80;71.04;100463.56;4999535;28;45532;-59
2022/10/22 02:40:09;;;;;;;;;2.33;1.00;;;;;16.82;71.09;100466.09;5013372;28;45544;-60
2022/10/22 02:42:36;;;;;;;;;2.00;0.00;;;;;16.78;70.84;100459.28;5016519;28;45352;-58
2022/10/22 02:45:02;;;;;;;;;1.00;1.00;;;;;16.78;70.86;100461.97;5016322;28;45624;-58
2022/10/22 02:47:28;;;;;;;;;3.00;2.00;;;;;16.76;71.40;100463.91;5015000;28;45275;-57
2022/10/22 02:49:53;;;;;;;;;2.00;2.00;;;;;16.66;71.40;100449.53;5007718;28;45416;-58
2022/10/22 02:52:19;;;;;;;;;4.33;3.00;;;;;16.69;71.31;100471.66;5009142;28;45369;-57
2022/10/22 02:54:45;;;;;;;;;5.33;2.00;;;;;16.68;71.46;100479.84;5023275;28;45483;-58
2022/10/22 02:57:10;;;;;;;;;2.00;0.33;;;;;16.61;71.78;100486.66;5017219;28;45441;-58
2022/10/22 02:59:35;;;;;;;;;2.00;2.00;;;;;16.56;71.82;100488.88;5015878;28;45289;-59
2022/10/22 03:02:00;;;;;;;;;2.33;0.33;;;;;16.49;71.93;100502.78;5012763;28;46606;-57
2022/10/22 03:04:26;;;;;;;;;1.00;1.00;;;;;16.51;72.34;100498.16;5014251;28;46623;-57
2022/10/22 03:06:51;;;;;;;;;1.00;1.00;;;;;16.52;72.29;100504.38;5007879;28;45406;-58
2022/10/22 03:09:17;;;;;;;;;1.00;1.00;;;;;16.50;71.82;100504.50;5000082;28;45475;-59
2022/10/22 03:11:42;;;;;;;;;2.33;2.33;;;;;16.48;72.42;100506.47;5014983;28;45547;-59
2022/10/22 03:14:08;;;;;;;;;0.67;0.67;;;;;16.50;72.80;100507.19;5015560;28;46200;-57
2022/10/22 03:16:33;;;;;;;;;1.33;1.00;;;;;16.51;72.34;100500.84;5015125;28;45479;-60
2022/10/22 03:19:00;;;;;;;;;0.00;0.00;;;;;16.48;72.57;100510.97;5016446;28;45775;-58
2022/10/22 03:21:36;;;;;;;;;1.00;1.00;;;;;16.45;72.87;100512.09;5013357;28;45327;-57
2022/10/22 03:24:08;;;;;;;;;3.00;1.33;;;;;16.42;72.68;100522.22;5004405;28;45441;-56
2022/10/22 03:26:34;;;;;;;;;3.00;1.00;;;;;16.41;72.56;100520.53;4995467;28;45424;-59
2022/10/22 03:28:59;;;;;;;;;1.33;1.00;;;;;16.37;73.02;100519.03;5008829;28;45555;-58
2022/10/22 03:31:25;;;;;;;;;0.00;0.00;;;;;16.37;73.02;100519.91;5018052;28;45497;-57
2022/10/22 03:33:50;;;;;;;;;1.00;1.00;;;;;16.33;73.11;100509.53;5017098;28;45432;-58
2022/10/22 03:36:15;;;;;;;;;1.00;1.00;;;;;16.41;73.21;100521.38;5034912;28;45367;-57
2022/10/22 03:38:41;;;;;;;;;1.67;1.67;;;;;16.37;73.13;100519.91;5015893;28;45689;-59
2022/10/22 03:41:07;;;;;;;;;1.00;1.00;;;;;16.39;73.43;100522.44;5008098;28;45400;-58
2022/10/22 03:43:36;;;;;;;;;2.33;1.00;;;;;16.35;73.10;100529.06;4998594;28;45262;-58
2022/10/22 03:46:02;;;;;;;;;2.33;2.33;;;;;16.39;73.29;100528.66;5002786;28;45569;-58
2022/10/22 03:48:28;;;;;;;;;2.00;2.00;;;;;16.42;73.26;100541.88;5018217;28;45497;-59
2022/10/22 03:50:53;;;;;;;;;1.33;1.33;;;;;16.38;73.43;100543.06;5016010;28;45628;-58
2022/10/22 03:53:18;;;;;;;;;5.00;1.67;;;;;16.37;73.23;100536.00;5018144;28;45515;-57
2022/10/22 03:55:44;;;;;;;;;1.67;1.67;;;;;16.47;73.37;100545.03;5018111;28;45388;-58
2022/10/22 03:58:09;;;;;;;;;1.00;1.00;;;;;16.49;73.36;100553.78;5007407;28;45410;-59
2022/10/22 04:00:35;;;;;;;;;1.00;1.00;;;;;16.52;73.34;100550.00;5006203;28;45531;-60
2022/10/22 04:03:00;;;;;;;;;0.00;0.00;;;;;16.53;73.31;100552.56;5018050;28;45528;-59
2022/10/22 04:05:26;;;;;;;;;1.67;1.00;;;;;16.55;73.21;100548.94;5017776;28;45439;-58
2022/10/22 04:07:52;;;;;;;;;1.00;1.00;;;;;16.55;73.49;100556.97;5028928;28;45284;-58
2022/10/22 04:10:17;;;;;;;;;3.00;1.00;;;;;16.59;73.34;100550.38;5016500;28;45446;-57
2022/10/22 04:12:47;;;;;;;;;3.67;2.00;;;;;16.48;73.29;100544.03;5017760;28;46066;-58
2022/10/22 04:15:12;;;;;;;;;2.33;1.00;;;;;16.58;73.41;100564.78;5007448;28;45414;-57
2022/10/22 04:17:38;;;;;;;;;1.33;1.33;;;;;16.63;73.32;100565.25;5016968;28;45482;-58
2022/10/22 04:20:04;;;;;;;;;5.33;0.33;;;;;16.57;72.97;100561.25;5015197;28;45464;-58
2022/10/22 04:22:33;;;;;;;;;4.00;1.33;;;;;16.61;73.46;100564.53;5017416;28;45512;-57
2022/10/22 04:24:59;;;;;;;;;1.67;1.00;;;;;16.65;73.18;100574.03;5003825;28;45292;-59
2022/10/22 04:27:28;;;;;;;;;2.33;2.00;;;;;16.69;73.36;100572.84;4998922;28;45317;-59
2022/10/22 04:29:53;;;;;;;;;1.00;1.00;;;;;16.64;73.27;100581.22;5008279;28;45640;-58
2022/10/22 04:32:18;;;;;;;;;3.00;1.67;;;;;16.62;73.20;100575.13;5006792;28;45444;-59
2022/10/22 04:34:44;;;;;;;;;2.00;1.00;;;;;16.61;73.25;100572.56;5007737;28;45541;-58
2022/10/22 04:37:12;;;;;;;;;2.67;1.33;;;;;16.59;73.27;100577.22;5016375;28;45573;-61
2022/10/22 04:39:38;;;;;;;;;0.00;0.00;;;;;16.60;73.24;100578.94;5016019;28;46922;-59
2022/10/22 04:42:03;;;;;;;;;2.00;2.00;;;;;16.54;73.43;100574.91;5016125;28;45606;-57
2022/10/22 04:44:29;;;;;;;;;4.00;2.00;;;;;16.57;73.12;100584.56;5017165;28;45332;-57
2022/10/22 04:46:54;;;;;;;;;3.33;1.33;;;;;16.58;73.20;100583.56;5017421;28;45675;-58
2022/10/22 04:49:19;;;;;;;;;1.67;1.67;;;;;16.56;73.28;100585.53;5010206;28;45532;-57
2022/10/22 04:51:45;;;;;;;;;2.33;1.67;;;;;16.56;73.20;100598.97;5017009;28;46012;-58
2022/10/22 04:54:10;;;;;;;;;1.00;1.00;;;;;16.55;73.42;100599.94;5017021;28;45725;-58
2022/10/22 04:56:36;;;;;;;;;4.00;2.33;;;;;16.57;73.43;100603.34;5016557;28;46509;-59
2022/10/22 04:59:04;;;;;;;;;1.33;1.33;;;;;16.56;73.29;100607.00;5005940;28;45641;-58
2022/10/22 05:01:32;;;;;;;;;4.33;0.00;;;;;16.49;73.41;100599.44;5014238;28;48056;-57
2022/10/22 05:04:00;;;;;;;;;3.00;2.67;;;;;16.55;73.52;100610.66;5016482;28;45527;-58
2022/10/22 05:06:27;;;;;;;;;3.33;2.00;;;;;16.52;73.77;100606.38;5004365;28;45415;-57
2022/10/22 05:08:56;;;;;;;;;2.33;1.00;;;;;16.54;73.66;100607.13;5025587;28;45565;-59
2022/10/22 05:11:27;;;;;;;;;4.00;2.00;;;;;16.53;73.53;100614.31;5016865;28;45308;-57
2022/10/22 05:13:54;;;;;;;;;3.67;2.00;;;;;16.52;73.89;100614.44;5017415;28;45495;-59
2022/10/22 05:16:19;;;;;;;;;3.00;3.00;;;;;16.50;73.70;100611.88;5016000;28;45534;-60
2022/10/22 05:18:45;;;;;;;;;2.00;2.00;;;;;16.56;73.62;100615.06;5043249;27;45648;-58
2022/10/22 05:21:14;;;;;;;;;5.00;2.00;;;;;16.57;73.77;100623.00;5015604;28;45913;-57
2022/10/22 05:23:39;;;;;;;;;4.33;3.00;;;;;16.57;73.77;100619.44;5002661;28;45273;-57
2022/10/22 05:26:06;;;;;;;;;2.00;2.00;;;;;16.59;73.74;100620.19;4997377;28;45329;-59
2022/10/22 05:28:33;;;;;;;;;4.00;3.00;;;;;16.55;73.78;100619.59;5008127;28;45466;-59
2022/10/22 05:31:00;;;;;;;;;3.00;2.67;;;;;16.60;73.64;100621.88;5014677;28;46042;-57
2022/10/22 05:33:28;;;;;;;;;2.00;2.00;;;;;16.57;73.68;100622.13;5016855;28;45497;-57
2022/10/22 05:35:57;;;;;;;;;1.67;1.67;;;;;16.62;73.72;100625.28;5017309;28;45344;-60
2022/10/22 05:38:22;;;;;;;;;1.67;1.67;;;;;16.63;73.55;100621.63;5017243;28;45323;-58
2022/10/22 05:40:47;;;;;;;;;3.00;2.67;;;;;16.64;73.78;100634.06;5009696;28;46238;-59
2022/10/22 05:43:13;;;;;;;;;6.67;2.00;;;;;16.62;73.38;100627.97;5018366;28;45246;-58
2022/10/22 05:45:41;;;;;;;;;4.67;3.00;;;;;16.63;73.83;100632.38;5017975;28;45474;-58
2022/10/22 05:48:08;;;;;;;;;3.00;2.00;;;;;16.64;73.90;100628.69;5017003;28;45265;-59
2022/10/22 05:50:38;;;;;;;;;3.00;3.00;;;;;16.62;73.58;100634.19;5002738;28;46084;-58
2022/10/22 05:53:04;;;;;;;;;3.00;2.00;;;;;16.59;73.46;100630.91;5031404;28;45434;-61
2022/10/22 05:55:35;;;;;;;;;3.67;2.00;;;;;16.61;73.58;100627.13;5032261;28;45449;-57
2022/10/22 05:58:01;;;;;;;;;3.00;1.67;;;;;16.61;73.74;100626.28;5011058;28;45460;-59
2022/10/22 06:00:26;;;;;;;;;6.33;2.00;;;;;16.57;73.85;100632.88;5014658;28;47735;-57
2022/10/22 06:02:52;;;;;;;;;6.00;1.33;;;;;16.58;73.97;100637.28;5014228;28;45343;-58
2022/10/22 06:05:17;;;;;;;;;9.33;2.00;;;;;16.57;74.03;100639.09;5012598;28;45341;-58
2022/10/22 06:07:43;;;;;;;;;2.67;2.67;;;;;16.53;74.15;100632.25;5015363;28;45521;-59
2022/10/22 06:10:14;;;;;;;;;1.00;1.00;;;;;16.58;74.12;100638.13;5015453;28;46179;-58
2022/10/22 06:12:39;;;;;;;;;2.00;1.00;;;;;16.58;73.97;100646.19;5016537;28;45479;-58
2022/10/22 06:15:05;;;;;;;;;1.00;1.00;;;;;16.59;73.97;100641.66;4998208;28;45321;-58
2022/10/22 06:17:31;;;;;;;;;2.00;2.00;;;;;16.57;73.96;100646.31;5021868;28;45447;-58
2022/10/22 06:19:56;;;;;;;;;3.33;2.67;;;;;16.52;74.04;100647.50;5015396;28;46164;-61
2022/10/22 06:22:22;;;;;;;;;2.33;2.00;;;;;16.56;74.22;100650.81;5016947;28;45375;-58
2022/10/22 06:24:47;;;;;;;;;3.67;1.00;;;;;16.50;74.16;100654.84;5025332;28;45477;-58
2022/10/22 06:27:13;;;;;;;;;2.33;2.00;;;;;16.54;74.31;100660.84;5017526;28;45481;-58
2022/10/22 06:29:38;;;;;;;;;3.33;3.00;;;;;16.56;74.22;100664.25;5011717;28;46040;-57
2022/10/22 06:32:03;;;;;;;;;1.00;1.00;;;;;16.54;73.98;100666.19;5014425;28;45424;-59
2022/10/22 06:34:29;;;;;;;;;4.00;2.67;;;;;16.53;74.13;100675.19;5031736;28;45440;-57
2022/10/22 06:36:55;;;;;;;;;1.33;1.33;;;;;16.42;74.25;100662.66;5016793;28;45471;-59
2022/10/22 06:39:20;;;;;;;;;2.00;1.33;;;;;16.48;74.28;100675.59;5014742;28;47105;-58
2022/10/22 06:41:46;;;;;;;;;2.00;2.00;;;;;16.48;74.29;100677.41;5015803;28;45339;-57
2022/10/22 06:44:16;;;;;;;;;3.67;3.00;;;;;16.45;74.18;100678.50;5013984;28;45447;-59
2022/10/22 06:46:42;;;;;;;;;4.33;3.67;;;;;16.43;74.28;100691.22;5015583;28;45248;-57
2022/10/22 06:49:12;;;;;;;;;1.67;1.67;;;;;16.40;74.57;100691.44;5010782;28;45553;-56
2022/10/22 06:51:38;;;;;;;;;1.33;1.33;;;;;16.39;74.64;100697.78;5014030;28;45257;-58
2022/10/22 06:54:03;;;;;;;;;3.00;2.00;;;;;16.30;74.73;100686.94;5015763;28;45245;-57
2022/10/22 06:56:29;;;;;;;;;2.00;2.00;;;;;16.34;74.50;100704.50;5015702;28;45579;-59
2022/10/22 06:58:57;;;;;;;;;2.00;2.00;;;;;16.30;74.98;100709.25;5013093;28;46192;-57
2022/10/22 07:01:28;;;;;;;;;2.00;2.00;;;;;16.25;74.88;100703.38;5014264;28;45443;-57
2022/10/22 07:03:55;;;;;;;;;4.00;3.67;;;;;16.25;75.10;100699.84;5015369;28;45331;-58
2022/10/22 07:06:22;;;;;;;;;7.67;2.33;;;;;16.21;75.15;100704.59;5018360;28;45236;-58
2022/10/22 07:08:47;;;;;;;;;3.00;3.00;;;;;16.15;75.17;100707.75;5018093;28;46750;-57
2022/10/22 07:11:15;;;;;;;;;3.00;3.00;;;;;16.13;75.22;100721.28;5018968;28;45423;-58
2022/10/22 07:13:42;;;;;;;;;3.00;3.00;;;;;16.12;75.08;100724.94;5016561;28;45478;-59
2022/10/22 07:16:08;;;;;;;;;2.00;2.00;;;;;16.08;75.07;100722.59;5018407;28;45562;-59
2022/10/22 07:18:35;;;;;;;;;2.00;2.00;;;;;16.09;75.48;100719.81;5017998;28;46001;-59
2022/10/22 07:21:01;;;;;;;;;2.00;2.00;;;;;16.06;75.54;100724.56;5017839;28;45606;-60
2022/10/22 07:23:28;;;;;;;;;4.00;2.00;;;;;16.12;75.54;100732.13;5019131;28;45176;-59
2022/10/22 07:25:53;;;;;;;;;1.67;1.67;;;;;16.17;75.30;100735.31;5017430;28;45661;-56
2022/10/22 07:28:19;;;;;;;;;8.33;4.00;;;;;16.05;75.28;100717.50;5017179;28;46100;-58
2022/10/22 07:30:44;;;;;;;;;2.00;2.00;;;;;16.17;74.95;100738.88;5014465;28;45565;-58
2022/10/22 07:33:11;;;;;;;;;2.33;0.67;;;;;16.17;75.19;100735.31;5014332;28;45356;-59
2022/10/22 07:35:38;;;;;;;;;3.33;3.00;;;;;16.20;74.93;100740.44;5018031;28;45408;-58
2022/10/22 07:38:04;;;;;;;;;4.67;3.00;;;;;16.27;74.83;100738.97;5017805;28;45507;-58
2022/10/22 07:40:30;;;;;;;;;3.00;3.00;;;;;16.27;74.78;100741.66;5016676;28;45558;-57
2022/10/22 07:42:56;;;;;;;;;4.00;3.00;;;;;16.27;74.48;100749.72;5014742;28;45394;-58
2022/10/22 07:45:21;;;;;;;;;2.00;2.00;;;;;16.21;74.79;100745.69;5030726;28;45533;-58
2022/10/22 07:47:47;;;;;;;;;1.00;1.00;;;;;16.22;74.57;100755.44;5023185;28;45370;-59
2022/10/22 07:50:14;;;;;;;;;3.00;3.00;;;;;16.22;74.78;100762.66;5000866;28;45488;-58
2022/10/22 07:52:39;;;;;;;;;4.00;2.00;;;;;16.22;74.77;100757.28;5010902;28;45883;-58
2022/10/22 07:55:05;;;;;;;;;3.33;3.33;;;;;16.19;75.10;100753.00;5017873;28;45628;-57
2022/10/22 07:57:30;;;;;;;;;4.67;4.67;;;;;16.26;75.00;100752.53;5011182;28;45691;-58
2022/10/22 07:59:57;;;;;;;;;6.33;4.33;;;;;16.26;74.58;100753.38;5005669;28;45631;-58
2022/10/22 08:02:23;;;;;;;;;2.67;2.67;;;;;16.28;74.89;100755.97;5029141;28;45323;-58
2022/10/22 08:04:49;;;;;;;;;3.67;3.00;;;;;16.30;74.47;100762.06;5016637;28;45698;-60
2022/10/22 08:07:14;;;;;;;;;3.00;2.00;;;;;16.32;74.69;100770.84;5003181;28;46211;-57
2022/10/22 08:09:39;;;;;;;;;4.00;2.67;;;;;16.28;74.61;100759.50;5013844;28;45412;-59
2022/10/22 08:12:06;;;;;;;;;3.67;3.67;;;;;16.29;74.56;100758.53;5017564;28;45245;-57
2022/10/22 08:14:32;;;;;;;;;4.33;3.00;;;;;16.35;74.34;100763.41;5016394;28;45418;-57
2022/10/22 08:16:57;;;;;;;;;3.33;1.33;;;;;16.43;74.05;100777.09;5029481;28;46218;-59
2022/10/22 08:19:23;;;;;;;;;2.33;2.00;;;;;16.43;74.18;100766.38;5033285;28;45324;-59
2022/10/22 08:21:48;;;;;;;;;3.33;2.00;;;;;16.40;73.78;100761.22;5026021;28;45223;-58
2022/10/22 08:24:14;;;;;;;;;3.67;2.00;;;;;16.45;73.99;100764.41;5005980;28;45503;-58
2022/10/22 08:26:40;;;;;;;;;3.00;2.00;;;;;16.56;73.75;100785.06;4998168;28;47165;-59
2022/10/22 08:29:06;;;;;;;;;4.33;3.33;;;;;16.63;73.61;100774.69;5013502;28;45351;-59
2022/10/22 08:31:32;;;;;;;;;2.00;2.00;;;;;16.69;73.16;100787.69;5013649;28;45399;-57
2022/10/22 08:33:58;;;;;;;;;5.00;2.00;;;;;16.70;72.84;100784.00;4998274;28;45248;-60
2022/10/22 08:36:23;;;;;;;;;3.33;3.00;;;;;16.67;73.13;100773.50;4997714;28;46253;-63
2022/10/22 08:38:49;;;;;;;;;4.00;2.00;;;;;16.78;72.91;100781.56;5005424;28;45268;-58
2022/10/22 08:41:21;;;;;;;;;2.00;2.00;;;;;16.79;72.59;100783.25;5002939;28;45282;-57
2022/10/22 08:44:23;;;;;;;;;3.00;3.00;;;;;16.85;72.73;100784.63;4998481;28;45369;-57
2022/10/22 08:47:11;;;;;;;;;3.33;3.33;;;;;16.86;72.71;100779.13;4997658;28;45415;-58
2022/10/22 08:49:41;;;;;;;;;8.00;2.00;;;;;16.99;72.35;100781.69;5013416;28;45518;-60
2022/10/22 08:52:16;;;;;;;;;3.33;3.33;;;;;17.02;72.16;100768.88;4998248;28;45300;-60
2022/10/22 08:54:51;;;;;;;;;2.00;0.67;;;;;17.04;71.70;100761.53;5010279;28;45437;-60
2022/10/22 08:57:44;;;;;;;;;3.00;2.33;;;;;17.15;71.68;100784.00;5016292;28;46657;-59
2022/10/22 09:00:10;;;;;;;;;2.00;2.00;;;;;17.20;71.38;100782.69;5016966;28;45311;-59
2022/10/22 09:03:06;;;;;;;;;2.67;2.67;;;;;17.25;71.51;100785.84;5017585;28;45398;-59
2022/10/22 09:05:38;;;;;;;;;5.67;3.00;;;;;17.30;71.05;100778.25;5033105;28;45366;-58
2022/10/22 09:08:08;;;;;;;;;2.00;2.00;;;;;17.36;70.90;100790.34;5017586;28;45571;-57
2022/10/22 09:10:37;;;;;;;;;4.00;3.00;;;;;17.36;70.71;100780.44;5017212;28;45391;-59
2022/10/22 09:13:10;;;;;;;;;4.00;4.00;;;;;17.34;70.82;100778.88;5017121;28;45237;-60
2022/10/22 09:15:37;;;;;;;;;6.00;3.00;;;;;17.40;70.82;100781.03;4999558;28;45324;-58
2022/10/22 09:18:46;;;;;;;;;4.67;4.67;;;;;17.47;70.96;100778.72;4997637;28;46161;-57
2022/10/22 09:21:39;;;;;;;;;3.33;3.00;;;;;17.53;70.60;100783.59;5009586;28;45524;-59
2022/10/22 09:24:17;;;;;;;;;6.00;3.33;;;;;17.58;70.98;100784.09;5017127;28;45378;-61
2022/10/22 09:26:45;;;;;;;;;3.00;3.00;;;;;17.61;70.60;100781.97;5018226;28;45498;-59
2022/10/22 09:29:23;;;;;;;;;1.00;1.00;;;;;17.68;70.33;100788.59;5025165;28;48305;-59
2022/10/22 09:31:49;;;;;;;;;2.00;2.00;;;;;17.74;69.89;100789.06;5005144;28;45185;-59
2022/10/22 09:34:19;;;;;;;;;3.67;2.00;;;;;17.73;69.74;100777.47;5012526;28;45533;-60
2022/10/22 09:36:44;;;;;;;;;3.33;3.00;;;;;17.83;69.87;100781.06;4997257;28;45458;-58
2022/10/22 09:39:28;;;;;;;;;4.00;2.67;;;;;17.92;70.00;100780.31;4997936;28;45993;-58
2022/10/22 09:41:56;;;;;;;;;1.33;1.33;;;;;17.98;69.57;100787.03;5012146;28;45443;-59
2022/10/22 09:44:22;;;;;;;;;5.00;2.00;;;;;18.04;69.57;100773.03;4997056;28;45349;-58
2022/10/22 09:46:48;;;;;;;;;1.00;1.00;;;;;18.12;69.18;100770.56;4997226;28;45242;-60
2022/10/22 09:49:34;;;;;;;;;2.00;2.00;;;;;18.20;69.42;100773.44;5032488;28;45315;-62
2022/10/22 09:52:00;;;;;;;;;1.00;1.00;;;;;18.24;68.90;100769.53;5013397;28;45337;-59
2022/10/22 09:54:32;;;;;;;;;2.00;2.00;;;;;18.31;69.19;100771.69;5022078;28;45327;-57
2022/10/22 09:57:03;;;;;;;;;2.00;2.00;;;;;18.38;68.37;100764.81;5032009;28;45613;-59
2022/10/22 09:59:40;;;;;;;;;3.33;1.00;;;;;18.45;68.23;100765.97;5016030;28;45327;-59
2022/10/22 10:02:13;;;;;;;;;1.00;1.00;;;;;18.53;68.48;100775.09;5016379;28;45411;-58
2022/10/22 10:04:47;;;;;;;;;1.00;1.00;;;;;18.62;67.97;100772.56;5014798;28;45413;-59
2022/10/22 10:07:19;;;;;;;;;2.67;1.67;;;;;18.69;66.99;100771.94;5007007;28;45441;-59
2022/10/22 10:09:45;;;;;;;;;2.00;2.00;;;;;18.66;67.67;100760.59;5016104;28;46116;-58
2022/10/22 10:12:16;;;;;;;;;2.25;2.00;;;;;18.81;67.56;100773.56;5016222;28;45318;-59
2022/10/22 10:15:06;;;;;;;;;4.00;2.00;;;;;18.90;66.62;100768.38;5016550;28;45351;-57
2022/10/22 10:17:56;;;;;;;;;2.75;1.75;;;;;19.00;66.40;100777.34;5016701;28;45173;-58
2022/10/22 10:20:52;;;;;;;;;3.00;1.00;;;;;19.08;66.52;100774.81;5016229;28;45414;-59
2022/10/22 10:23:41;;;;;;;;;1.25;1.25;;;;;19.13;66.65;100772.56;5015294;28;45494;-59
2022/10/22 10:26:39;;;;;;;;;3.33;2.00;;;;;19.19;66.04;100777.44;5016090;28;45280;-58
2022/10/22 10:29:16;;;;;;;;;0.33;0.00;;;;;19.32;65.92;100777.19;4978679;28;45535;-57
2022/10/22 10:31:47;;;;;;;;;2.00;2.00;;;;;19.44;65.64;100770.69;5014677;28;46420;-60
2022/10/22 10:34:28;;;;;;;;;2.50;1.00;;;;;19.53;65.20;100777.06;5022858;28;45449;-61
2022/10/22 10:37:03;;;;;;;;;3.00;2.00;;;;;19.66;64.86;100777.69;5018288;28;45328;-59
2022/10/22 10:39:50;;;;;;;;;4.00;2.00;;;;;19.68;64.75;100773.03;5024857;28;45262;-60
2022/10/22 10:42:39;;;;;;;;;4.00;3.00;;;;;19.83;64.29;100781.56;4999907;28;45443;-57
2022/10/22 10:45:23;;;;;;;;;1.75;1.75;;;;;19.96;64.16;100782.16;4998086;28;45486;-61
2022/10/22 10:47:49;;;;;;;;;3.25;2.25;;;;;20.10;63.76;100780.88;5000120;28;45426;-57
2022/10/22 10:50:33;;;;;;;;;4.00;4.00;;;;;20.22;63.46;100780.56;5014968;28;45467;-57
2022/10/22 10:53:19;;;;;;;;;7.50;2.75;;;;;20.38;62.75;100781.81;5002356;28;46149;-60
2022/10/22 10:56:24;;;;;;;;;2.75;2.75;;;;;20.48;63.01;100782.72;5015405;28;45789;-58
2022/10/22 10:59:08;;;;;;;;;3.25;3.25;;;;;20.63;62.53;100783.09;5011329;28;45927;-58
2022/10/22 11:01:59;;;;;;;;;4.75;3.25;;;;;20.74;62.28;100777.53;5019646;28;45409;-59
2022/10/22 11:04:49;;;;;;;;;2.00;2.00;;;;;20.77;61.69;100785.31;5019185;28;45283;-60
2022/10/22 11:07:21;;;;;;;;;3.00;1.75;;;;;20.59;61.05;100772.59;5034560;28;45702;-58
2022/10/22 11:09:56;;;;;;;;;1.75;1.75;;;;;20.60;61.70;100781.53;5018242;28;45251;-58
2022/10/22 11:12:33;;;;;;;;;2.00;2.00;;;;;20.66;60.45;100774.69;5019549;28;45237;-59
2022/10/22 11:15:08;;;;;;;;;4.00;2.50;;;;;20.84;60.14;100779.19;4998984;28;46194;-60
2022/10/22 11:17:41;;;;;;;;;1.50;1.50;;;;;20.93;60.70;100772.03;4999502;28;45286;-61
2022/10/22 11:20:19;;;;;;;;;4.00;2.00;;;;;21.15;60.00;100777.06;4999668;28;45251;-59
2022/10/22 11:22:54;;;;;;;;;1.75;1.75;;;;;21.17;60.07;100771.50;4999587;28;45395;-59
2022/10/22 11:25:29;;;;;;;;;2.25;2.25;;;;;21.23;59.07;100772.78;4999080;28;45618;-59
2022/10/22 11:28:12;;;;;;;;;2.00;2.00;;;;;21.33;59.49;100776.28;4999434;28;45336;-60
2022/10/22 11:30:42;;;;;;;;;2.00;2.00;;;;;21.43;59.31;100766.28;5024425;28;45525;-59
2022/10/22 11:33:15;;;;;;;;;3.00;2.00;;;;;21.51;58.36;100763.66;5019638;28;45356;-60
2022/10/22 11:35:43;;;;;;;;;1.00;1.00;;;;;21.64;58.47;100776.81;5019765;28;48458;-60
2022/10/22 11:38:17;;;;;;;;;1.20;0.60;;;;;21.57;57.49;100762.19;5018976;28;45318;-59
2022/10/22 11:41:05;;;;;;;;;3.00;1.50;;;;;21.70;57.15;100757.25;5020360;28;45421;-58